Summerland, Canada
Current Conditions -  °F | °C
As of 9:42 AM on Saturday 20 Dec 2014 (Local Time) from CYYF Reporting Station
Light Rain Light Rain  
Wind Chill: 31°   Ceiling: 3800
Heat Index: 39°   Visibility: 15mi
Dew Point: 36°   Wind: 15mph
Humidity: 87%   Direction: 160°SSE
Pressure: 29.76"   Gusts: 25mph
Location:  49.6°N, 119.68°W
Report Text: CYYF 201742Z 16013G22KT 15SM -RA SCT018 BKN038 OVC072 04/02 A2976 RMK SF3SC3AC2 SLP087
Loading
Personal Weather Stations






























Interactive Weather Map New forecast layout! Learn more

10-Day Weather Forecast

Advertisements
Track Severe Weather on mobile